Terminal Aerodrome Forecast
Issued by NWS Sterling, VA

Current Version | Previous Version | Text Only | Print | Product List | Glossary Off
Versions: 1 2 3 4 5 6 7 8 9 10 11 12 13 14 15 16 17 18 19 20 21 22 23 24 25

000
FTUS41 KLWX 280907 AAA
TAFIAD
TAF AMD
KIAD 280907Z 2809/0112 34010KT P6SM FEW150
     FM281800 05004KT P6SM SCT150
     FM010600 VRB04KT P6SM OVC050=

USA.gov is the U.S. government's official web portal to all federal, state and local government web resources and services.